Time;durP1;ratioP1;P1;durP2;ratioP2;P2;SDS_P1;SDS_P2;PMS_P1;PMS_P2;Temp;Humidity;BMP_temperature;BMP_pressure;BME280_temperature;BME280_humidity;BME280_pressure;Samples;Min_cycle;Max_cycle;Signal;HPM_P1;HPM_P2
2022/06/11 00:01:08;;;;;;;;;;;19.40;99.90;;;;;;5020907;28;20080;-74
2022/06/11 00:03:36;;;;;;;10.73;6.72;;;19.50;99.90;;;;;;5017442;28;19927;-75
2022/06/11 00:06:05;;;;;;;8.52;6.10;;;19.50;99.90;;;;;;5035040;28;20041;-74
2022/06/11 00:08:32;;;;;;;10.55;6.38;;;19.50;99.90;;;;;;5021229;28;20037;-74
2022/06/11 00:11:00;;;;;;;8.77;5.97;;;19.50;99.90;;;;;;5019619;28;20045;-74
2022/06/11 00:13:27;;;;;;;13.82;6.72;;;19.40;99.90;;;;;;5037128;28;20057;-74
2022/06/11 00:15:55;;;;;;;11.60;7.07;;;19.40;99.90;;;;;;5020690;28;20072;-74
2022/06/11 00:18:24;;;;;;;10.82;6.85;;;19.30;99.90;;;;;;5012428;28;20060;-74
2022/06/11 00:20:53;;;;;;;13.30;7.03;;;19.30;99.90;;;;;;5021610;28;20052;-74
2022/06/11 00:23:21;;;;;;;9.55;6.75;;;19.20;99.90;;;;;;5020067;28;20332;-74
2022/06/11 00:25:48;;;;;;;12.32;6.32;;;19.20;99.90;;;;;;5021344;28;20037;-74
2022/06/11 00:28:15;;;;;;;7.35;5.45;;;19.00;99.90;;;;;;5019104;28;20041;-74
2022/06/11 00:30:43;;;;;;;11.93;6.32;;;19.10;99.90;;;;;;5035407;28;20042;-75
2022/06/11 00:33:10;;;;;;;12.27;6.35;;;19.00;99.90;;;;;;5003371;28;20050;-75
2022/06/11 00:35:42;;;;;;;12.13;6.43;;;18.90;99.90;;;;;;5020471;28;20037;-74
2022/06/11 00:38:10;;;;;;;9.02;5.88;;;18.90;99.90;;;;;;5021964;28;20049;-75
2022/06/11 00:40:40;;;;;;;10.10;5.38;;;18.90;99.90;;;;;;5020166;28;20131;-74
2022/06/11 00:43:08;;;;;;;13.18;6.38;;;18.90;99.90;;;;;;5021777;28;20380;-74
2022/06/11 00:45:59;;;;;;;11.23;6.28;;;18.90;99.90;;;;;;5006170;28;20115;-74
2022/06/11 00:48:34;;;;;;;11.77;5.95;;;18.90;99.90;;;;;;5028629;28;20060;-74
2022/06/11 00:51:23;;;;;;;10.52;5.57;;;18.90;99.90;;;;;;5019223;28;20073;-74
2022/06/11 00:53:56;;;;;;;8.60;5.47;;;18.90;99.90;;;;;;5018940;28;20045;-74
2022/06/11 00:56:38;;;;;;;11.15;6.38;;;18.90;99.90;;;;;;5000233;28;20034;-73
2022/06/11 00:59:09;;;;;;;7.75;4.82;;;18.80;99.90;;;;;;5020074;28;20037;-74
2022/06/11 01:01:36;;;;;;;9.43;6.07;;;18.80;99.90;;;;;;5018570;28;20142;-74
2022/06/11 01:04:32;;;;;;;10.07;5.93;;;18.90;99.90;;;;;;5021828;28;20048;-73
2022/06/11 01:07:26;;;;;;;8.13;5.65;;;18.80;99.90;;;;;;5018566;28;20152;-74
2022/06/11 01:10:16;;;;;;;9.80;5.57;;;18.70;99.90;;;;;;4972174;28;20049;-74
2022/06/11 01:13:07;;;;;;;11.60;5.85;;;18.70;99.90;;;;;;5011852;28;20057;-73
2022/06/11 01:15:57;;;;;;;9.05;5.72;;;18.70;99.90;;;;;;5017866;28;20061;-73
2022/06/11 01:18:37;;;;;;;11.65;5.70;;;18.70;99.90;;;;;;5018432;28;20050;-74
2022/06/11 01:21:13;;;;;;;10.10;5.88;;;18.70;99.90;;;;;;5021623;28;20124;-74
2022/06/11 01:24:05;;;;;;;10.18;5.82;;;18.60;99.90;;;;;;5014922;28;20119;-74
2022/06/11 01:26:53;;;;;;;8.93;5.80;;;18.60;99.90;;;;;;5024857;28;20045;-74
2022/06/11 01:29:58;;;;;;;9.95;5.38;;;18.60;99.90;;;;;;5024430;28;20303;-73
2022/06/11 01:32:46;;;;;;;8.23;4.97;;;18.70;99.90;;;;;;5020407;28;20037;-74
2022/06/11 01:35:23;;;;;;;11.85;5.57;;;18.60;99.90;;;;;;5026637;28;20128;-74
2022/06/11 01:38:03;;;;;;;10.10;5.90;;;18.70;99.90;;;;;;5024266;28;20053;-75
2022/06/11 01:41:00;;;;;;;10.90;5.68;;;18.70;99.90;;;;;;5022284;28;20049;-74
2022/06/11 01:43:37;;;;;;;8.10;5.03;;;18.80;99.90;;;;;;5008482;28;20073;-74
2022/06/11 01:46:12;;;;;;;8.10;5.82;;;18.70;99.90;;;;;;5023469;28;20045;-74
2022/06/11 01:48:51;;;;;;;10.40;6.63;;;18.60;99.90;;;;;;5024745;28;20088;-74
2022/06/11 01:51:25;;;;;;;9.98;5.90;;;18.50;99.90;;;;;;5022420;28;20042;-73
2022/06/11 01:53:58;;;;;;;10.18;5.57;;;18.60;99.90;;;;;;5022376;28;20124;-74
2022/06/11 01:56:45;;;;;;;10.65;6.35;;;18.60;99.90;;;;;;5006045;28;20442;-74
2022/06/11 01:59:25;;;;;;;13.05;6.28;;;18.60;99.90;;;;;;5021743;28;20049;-74
2022/06/11 02:02:01;;;;;;;11.10;5.80;;;18.60;99.90;;;;;;5022733;28;20045;-74
2022/06/11 02:04:52;;;;;;;10.02;6.43;;;18.60;99.90;;;;;;5023342;28;20088;-74
2022/06/11 02:07:43;;;;;;;14.45;6.50;;;18.60;99.90;;;;;;5018866;28;20045;-74
2022/06/11 02:10:39;;;;;;;12.73;6.93;;;18.60;99.90;;;;;;5018698;28;20132;-73
2022/06/11 02:13:42;;;;;;;12.02;6.65;;;18.60;99.90;;;;;;5016091;28;20057;-74
2022/06/11 02:16:29;;;;;;;9.30;5.97;;;18.50;99.90;;;;;;5025879;28;20506;-74
2022/06/11 02:18:58;;;;;;;9.35;5.60;;;18.60;99.90;;;;;;5040608;28;20505;-74
2022/06/11 02:21:32;;;;;;;10.90;7.13;;;18.70;99.90;;;;;;5025583;28;20461;-74
2022/06/11 02:24:10;;;;;;;8.95;6.20;;;18.60;99.90;;;;;;5010105;28;20042;-74
2022/06/11 02:26:43;;;;;;;10.18;5.97;;;18.60;99.90;;;;;;5024729;28;20072;-73
2022/06/11 02:29:13;;;;;;;9.45;5.78;;;18.60;99.90;;;;;;5023719;28;20128;-74
2022/06/11 02:31:47;;;;;;;8.52;5.63;;;18.60;99.90;;;;;;5023243;28;20045;-74
2022/06/11 02:34:17;;;;;;;9.02;5.85;;;18.60;99.90;;;;;;5022680;28;20073;-73
2022/06/11 02:36:54;;;;;;;12.45;5.65;;;18.40;99.90;;;;;;5023678;28;20038;-74
2022/06/11 02:39:21;;;;;;;11.70;6.20;;;18.40;99.90;;;;;;5017861;28;20061;-73
2022/06/11 02:41:49;;;;;;;9.77;5.78;;;18.60;99.90;;;;;;5023654;28;20129;-74
2022/06/11 02:44:17;;;;;;;8.48;5.88;;;18.50;99.90;;;;;;5006559;28;20072;-74
2022/06/11 02:46:44;;;;;;;9.98;6.13;;;18.60;99.90;;;;;;5022191;28;20087;-74
2022/06/11 02:49:22;;;;;;;10.00;5.80;;;18.60;99.90;;;;;;5023123;28;20048;-73
2022/06/11 02:51:52;;;;;;;10.85;6.55;;;18.50;99.90;;;;;;5023132;28;20489;-73
2022/06/11 02:54:21;;;;;;;8.10;5.28;;;18.40;99.90;;;;;;5024345;28;20420;-74
2022/06/11 02:56:50;;;;;;;10.13;6.15;;;18.30;99.90;;;;;;5023228;28;20404;-76
2022/06/11 02:59:18;;;;;;;10.27;5.88;;;18.30;99.90;;;;;;5002872;28;20037;-76
2022/06/11 03:01:45;;;;;;;9.80;5.93;;;18.30;99.90;;;;;;5024453;28;20045;-73
2022/06/11 03:04:12;;;;;;;12.45;6.03;;;18.30;99.90;;;;;;5022181;28;20045;-73
2022/06/11 03:06:42;;;;;;;8.73;5.47;;;18.20;99.90;;;;;;5025921;28;20103;-74
2022/06/11 03:09:12;;;;;;;9.73;5.13;;;18.30;99.90;;;;;;5023626;28;20088;-74
2022/06/11 03:11:40;;;;;;;9.25;5.85;;;18.30;99.90;;;;;;5023071;28;20092;-74
2022/06/11 03:14:07;;;;;;;10.07;5.35;;;18.30;99.90;;;;;;5020002;28;20052;-74
2022/06/11 03:16:36;;;;;;;8.80;5.57;;;18.40;99.90;;;;;;5016285;28;20497;-74
2022/06/11 03:19:05;;;;;;;12.40;5.57;;;18.40;99.90;;;;;;5022267;28;20061;-74
2022/06/11 03:21:33;;;;;;;8.77;5.53;;;18.30;99.90;;;;;;5006958;28;20065;-74
2022/06/11 03:24:00;;;;;;;8.98;5.07;;;18.30;99.90;;;;;;5003971;28;20321;-74
2022/06/11 03:26:28;;;;;;;8.25;5.75;;;18.30;99.90;;;;;;5007282;28;20414;-74
2022/06/11 03:28:55;;;;;;;7.80;5.18;;;18.40;99.90;;;;;;5017824;28;20044;-74
2022/06/11 03:31:22;;;;;;;9.48;4.88;;;18.40;99.90;;;;;;5054564;28;20038;-74
2022/06/11 03:33:49;;;;;;;7.95;4.95;;;18.40;99.90;;;;;;5023372;28;20056;-75
2022/06/11 03:36:18;;;;;;;8.68;5.28;;;18.40;99.90;;;;;;5024983;28;20473;-74
2022/06/11 03:38:46;;;;;;;7.35;4.93;;;18.40;99.90;;;;;;5003703;28;20095;-75
2022/06/11 03:41:15;;;;;;;7.32;4.60;;;18.40;99.90;;;;;;5021856;28;20472;-75
2022/06/11 03:43:42;;;;;;;7.72;5.47;;;18.50;99.90;;;;;;5006899;28;20048;-74
2022/06/11 03:46:09;;;;;;;8.10;4.25;;;18.50;99.90;;;;;;5021478;28;20041;-74
2022/06/11 03:48:38;;;;;;;10.48;5.10;;;18.50;99.90;;;;;;5021548;28;20044;-73
2022/06/11 03:51:08;;;;;;;8.10;5.40;;;18.60;99.90;;;;;;5034242;28;20131;-74
2022/06/11 03:53:37;;;;;;;8.45;5.20;;;18.60;99.90;;;;;;5023144;28;20038;-74
2022/06/11 03:56:06;;;;;;;8.10;5.40;;;18.50;99.90;;;;;;5023420;28;20069;-74
2022/06/11 03:58:35;;;;;;;7.80;5.07;;;18.60;99.90;;;;;;5020602;28;20524;-74
2022/06/11 04:01:15;;;;;;;8.57;4.78;;;18.60;99.90;;;;;;5016224;28;20049;-74
2022/06/11 04:03:49;;;;;;;6.63;4.57;;;18.60;99.90;;;;;;5017176;28;20046;-74
2022/06/11 04:06:20;;;;;;;7.18;4.57;;;18.60;99.90;;;;;;5018082;28;20053;-73
2022/06/11 04:08:48;;;;;;;8.40;4.93;;;18.70;99.90;;;;;;5021770;28;20175;-74
2022/06/11 04:11:17;;;;;;;8.60;5.00;;;18.80;99.90;;;;;;5022833;28;20392;-74
2022/06/11 04:13:45;;;;;;;10.98;5.50;;;18.80;99.90;;;;;;5022241;28;20057;-73
2022/06/11 04:16:23;;;;;;;8.23;5.07;;;18.90;99.90;;;;;;5012167;28;20053;-73
2022/06/11 04:18:51;;;;;;;7.65;4.75;;;19.00;99.90;;;;;;5039632;28;20119;-73
2022/06/11 04:21:21;;;;;;;7.05;4.82;;;19.10;99.90;;;;;;5035053;28;20447;-74
2022/06/11 04:23:50;;;;;;;6.53;4.65;;;19.10;99.90;;;;;;5023549;28;20128;-74
2022/06/11 04:26:22;;;;;;;10.30;5.68;;;19.20;99.90;;;;;;5023748;28;20033;-74
2022/06/11 04:28:49;;;;;;;9.13;5.10;;;19.10;99.90;;;;;;5023211;28;20049;-74
2022/06/11 04:31:17;;;;;;;8.93;4.80;;;19.00;99.90;;;;;;5020903;28;20301;-76
2022/06/11 04:33:47;;;;;;;8.48;5.10;;;18.90;99.90;;;;;;5018552;28;20954;-74
2022/06/11 04:36:16;;;;;;;8.73;5.38;;;19.00;99.90;;;;;;5021549;28;20896;-74
2022/06/11 04:38:44;;;;;;;9.02;5.45;;;19.00;99.90;;;;;;5024676;28;20500;-74
2022/06/11 04:41:12;;;;;;;8.00;4.90;;;19.00;99.90;;;;;;5020812;28;20056;-74
2022/06/11 04:43:39;;;;;;;8.30;4.43;;;19.00;99.90;;;;;;5023655;28;20070;-75
2022/06/11 04:46:07;;;;;;;8.48;5.00;;;19.00;99.90;;;;;;5016320;28;20037;-73
2022/06/11 04:48:35;;;;;;;8.85;4.72;;;19.10;99.90;;;;;;5022902;28;20124;-74
2022/06/11 04:51:03;;;;;;;6.90;4.80;;;19.20;99.90;;;;;;5023212;28;20120;-75
2022/06/11 04:53:30;;;;;;;7.75;4.63;;;19.20;99.90;;;;;;5006155;28;20057;-74
2022/06/11 04:55:57;;;;;;;6.28;4.60;;;19.20;99.90;;;;;;5023121;28;20447;-75
2022/06/11 04:58:25;;;;;;;7.70;4.70;;;19.20;99.90;;;;;;5021423;28;20042;-75
2022/06/11 05:00:53;;;;;;;8.32;4.50;;;19.30;99.90;;;;;;5016094;28;20081;-75
2022/06/11 05:03:20;;;;;;;6.40;4.25;;;19.30;99.90;;;;;;4997933;28;20054;-73
2022/06/11 05:05:47;;;;;;;6.28;4.68;;;19.30;99.90;;;;;;5001172;28;20812;-75
2022/06/11 05:08:15;;;;;;;7.20;4.82;;;19.40;99.90;;;;;;4999989;28;20053;-74
2022/06/11 05:10:44;;;;;;;8.80;4.95;;;19.50;99.90;;;;;;4998797;28;20038;-75
2022/06/11 05:13:12;;;;;;;7.65;4.70;;;19.60;99.90;;;;;;5001239;28;20053;-75
2022/06/11 05:15:45;;;;;;;8.02;5.03;;;19.80;99.90;;;;;;4999697;28;20065;-74
2022/06/11 05:18:14;;;;;;;6.78;4.60;;;19.70;99.90;;;;;;4999219;28;20064;-74
2022/06/11 05:20:42;;;;;;;7.07;4.40;;;19.70;99.90;;;;;;4992446;28;20508;-74
2022/06/11 05:23:09;;;;;;;6.88;4.57;;;19.70;99.90;;;;;;4998705;28;20056;-73
2022/06/11 05:25:40;;;;;;;5.95;4.50;;;19.70;99.90;;;;;;5000579;28;20050;-74
2022/06/11 05:28:11;;;;;;;7.28;4.22;;;19.70;99.90;;;;;;4998130;28;20053;-74
2022/06/11 05:30:38;;;;;;;5.40;4.30;;;19.80;99.90;;;;;;4997872;28;20038;-74
2022/06/11 05:33:06;;;;;;;6.88;4.32;;;19.80;99.90;;;;;;4996471;28;20064;-73
2022/06/11 05:35:35;;;;;;;6.95;4.70;;;19.90;99.90;;;;;;4991266;28;20123;-74
2022/06/11 05:38:05;;;;;;;6.60;4.57;;;20.20;99.90;;;;;;5000758;28;20045;-75
2022/06/11 05:40:38;;;;;;;7.65;4.90;;;20.50;99.10;;;;;;4998535;28;20536;-74
2022/06/11 05:43:06;;;;;;;6.93;4.60;;;20.80;98.50;;;;;;4998019;28;22488;-74
2022/06/11 05:46:03;;;;;;;5.40;4.15;;;21.00;97.90;;;;;;4987826;28;21002;-75
2022/06/11 05:48:46;;;;;;;5.65;4.05;;;21.20;97.10;;;;;;4998657;28;20057;-74
2022/06/11 05:51:19;;;;;;;6.97;4.07;;;21.40;97.20;;;;;;5017032;28;20053;-74
2022/06/11 05:53:47;;;;;;;;;;;21.40;93.90;;;;;;4998023;28;20141;-74
2022/06/11 05:56:15;;;;;;;6.72;4.50;;;21.40;93.70;;;;;;4996303;28;19929;-73
2022/06/11 05:58:47;;;;;;;5.57;3.78;;;21.70;95.40;;;;;;5004456;28;22493;-74
2022/06/11 06:01:21;;;;;;;5.95;4.50;;;21.80;93.30;;;;;;4981135;28;20433;-73
2022/06/11 06:03:48;;;;;;;5.53;4.03;;;22.00;93.50;;;;;;4987867;28;20887;-76
2022/06/11 06:06:16;;;;;;;4.90;3.60;;;22.00;91.50;;;;;;4995224;28;20050;-77
2022/06/11 06:08:44;;;;;;;5.43;3.47;;;22.00;88.60;;;;;;4999092;28;20041;-75
2022/06/11 06:11:12;;;;;;;4.43;3.40;;;22.10;88.10;;;;;;5002629;28;20042;-75
2022/06/11 06:13:45;;;;;;;4.88;3.42;;;22.20;87.20;;;;;;4999833;28;20807;-75
2022/06/11 06:16:20;;;;;;;5.05;3.35;;;22.20;88.10;;;;;;4999104;28;20056;-76
2022/06/11 06:18:48;;;;;;;5.43;3.88;;;22.10;85.60;;;;;;4990571;28;20527;-76
2022/06/11 06:21:18;;;;;;;5.10;3.42;;;22.20;86.10;;;;;;5001035;28;20535;-76
2022/06/11 06:23:45;;;;;;;4.90;3.20;;;22.40;85.30;;;;;;5012594;28;20064;-75
2022/06/11 06:26:15;;;;;;;5.63;3.25;;;22.40;84.90;;;;;;5003268;28;20050;-75
2022/06/11 06:28:43;;;;;;;5.38;3.67;;;22.60;83.50;;;;;;5001678;28;20608;-75
2022/06/11 06:31:13;;;;;;;4.65;3.25;;;22.70;83.50;;;;;;5001894;28;20049;-75
2022/06/11 06:33:42;;;;;;;4.55;3.55;;;22.90;82.00;;;;;;5018406;28;20051;-77
2022/06/11 06:36:10;;;;;;;6.13;3.17;;;23.00;82.60;;;;;;5001545;28;20061;-76
2022/06/11 06:38:39;;;;;;;5.75;3.67;;;23.00;80.90;;;;;;5034603;28;20057;-76
2022/06/11 06:41:07;;;;;;;4.88;3.00;;;23.10;81.20;;;;;;4999222;28;20056;-75
2022/06/11 06:43:34;;;;;;;4.75;3.15;;;23.20;78.70;;;;;;4993790;28;20050;-76
2022/06/11 06:46:02;;;;;;;4.57;3.00;;;23.20;77.70;;;;;;5002724;28;20053;-76
2022/06/11 06:48:29;;;;;;;4.18;3.40;;;23.20;79.20;;;;;;4997516;28;20104;-75
2022/06/11 06:50:58;;;;;;;4.97;2.75;;;23.20;77.20;;;;;;4999166;28;20046;-76
2022/06/11 06:53:26;;;;;;;6.38;3.17;;;23.20;76.00;;;;;;4999430;28;22403;-76
2022/06/11 06:55:53;;;;;;;3.90;3.22;;;23.30;77.40;;;;;;4990663;28;20050;-75
2022/06/11 06:58:20;;;;;;;4.95;3.10;;;23.50;78.40;;;;;;4998554;28;20049;-75
2022/06/11 07:00:48;;;;;;;3.90;2.83;;;23.70;77.40;;;;;;4998100;28;20052;-76
2022/06/11 07:03:16;;;;;;;3.60;3.22;;;23.90;77.30;;;;;;4990916;28;20143;-75
2022/06/11 07:05:45;;;;;;;6.05;3.22;;;23.80;74.60;;;;;;5018351;28;20132;-75
2022/06/11 07:08:13;;;;;;;3.88;3.17;;;23.80;75.30;;;;;;5003511;28;20050;-74
2022/06/11 07:10:47;;;;;;;4.55;3.30;;;23.90;74.20;;;;;;5003467;28;20085;-75
2022/06/11 07:13:15;;;;;;;3.95;3.28;;;24.00;74.00;;;;;;5020534;28;20057;-74
2022/06/11 07:15:44;;;;;;;5.10;3.03;;;24.00;74.10;;;;;;5003047;28;20046;-75
2022/06/11 07:18:18;;;;;;;6.20;3.45;;;23.80;75.00;;;;;;4991701;28;20049;-75
2022/06/11 07:20:47;;;;;;;6.07;3.35;;;24.00;75.40;;;;;;5002588;28;20053;-75
2022/06/11 07:23:21;;;;;;;5.25;3.70;;;24.10;77.30;;;;;;5014151;28;20531;-74
2022/06/11 07:25:52;;;;;;;5.20;3.40;;;24.20;75.50;;;;;;5001613;28;20041;-74
2022/06/11 07:28:24;;;;;;;4.03;3.00;;;24.00;73.20;;;;;;5002837;28;20052;-75
2022/06/11 07:30:51;;;;;;;3.83;3.13;;;23.90;72.80;;;;;;4998276;28;20046;-73
2022/06/11 07:33:23;;;;;;;5.03;3.00;;;23.90;73.00;;;;;;4990198;28;20056;-73
2022/06/11 07:35:52;;;;;;;4.38;2.80;;;24.20;73.20;;;;;;4981037;28;20136;-74
2022/06/11 07:38:25;;;;;;;4.10;3.25;;;24.30;72.90;;;;;;4992187;28;20056;-74
2022/06/11 07:40:52;;;;;;;4.20;3.70;;;24.30;72.80;;;;;;4999498;28;20039;-77
2022/06/11 07:43:19;;;;;;;4.32;3.00;;;24.20;73.70;;;;;;4998412;28;20737;-75
2022/06/11 07:45:48;;;;;;;2.95;2.65;;;24.40;73.20;;;;;;5019075;28;20115;-75
2022/06/11 07:48:16;;;;;;;6.10;2.97;;;24.20;73.20;;;;;;5009958;28;20809;-75
2022/06/11 07:50:47;;;;;;;4.13;3.30;;;24.30;73.50;;;;;;5019502;28;20046;-75
2022/06/11 07:53:16;;;;;;;3.58;3.08;;;24.50;74.40;;;;;;5000401;28;22640;-75
2022/06/11 07:55:45;;;;;;;3.95;3.15;;;24.60;73.00;;;;;;5002282;28;20042;-75
2022/06/11 07:58:16;;;;;;;5.25;3.05;;;24.60;70.20;;;;;;5001709;28;20053;-74
2022/06/11 08:00:47;;;;;;;3.92;2.92;;;24.50;71.30;;;;;;5008471;28;20056;-76
2022/06/11 08:03:14;;;;;;;4.60;3.40;;;24.60;72.10;;;;;;5004333;28;20119;-75
2022/06/11 08:05:43;;;;;;;5.40;3.30;;;24.60;72.60;;;;;;5006830;28;20084;-75
2022/06/11 08:08:10;;;;;;;5.53;3.17;;;24.70;72.00;;;;;;5009504;28;20115;-76
2022/06/11 08:10:39;;;;;;;3.95;3.00;;;24.50;72.10;;;;;;4997516;28;22293;-76
2022/06/11 08:13:07;;;;;;;5.68;3.55;;;24.60;73.10;;;;;;5003604;28;20056;-76
2022/06/11 08:15:36;;;;;;;4.03;3.03;;;24.60;72.20;;;;;;5000770;28;20045;-75
2022/06/11 08:18:04;;;;;;;3.65;2.95;;;24.70;71.60;;;;;;5000279;28;20061;-74
2022/06/11 08:20:34;;;;;;;3.83;2.95;;;24.60;70.50;;;;;;4996792;28;20693;-75
2022/06/11 08:23:02;;;;;;;5.38;3.25;;;24.80;70.60;;;;;;5020803;28;20049;-75
2022/06/11 08:25:29;;;;;;;3.63;2.75;;;25.00;71.40;;;;;;5001206;28;20041;-75
2022/06/11 08:27:56;;;;;;;3.78;3.00;;;25.30;71.10;;;;;;5018254;28;20199;-75
2022/06/11 08:30:26;;;;;;;5.07;3.42;;;25.40;70.40;;;;;;4994354;28;21077;-76
2022/06/11 08:32:53;;;;;;;3.83;2.65;;;25.70;70.30;;;;;;4988105;28;20483;-75
2022/06/11 08:35:24;;;;;;;3.95;2.75;;;25.20;68.60;;;;;;5002738;28;20049;-76
2022/06/11 08:37:51;;;;;;;3.85;2.92;;;24.90;69.60;;;;;;5002659;28;20049;-76
2022/06/11 08:40:26;;;;;;;3.50;2.70;;;24.80;70.60;;;;;;5020955;28;20045;-75
2022/06/11 08:43:02;;;;;;;5.38;3.03;;;25.00;70.10;;;;;;5021310;28;20053;-75
2022/06/11 08:45:41;;;;;;;6.53;3.50;;;24.80;71.60;;;;;;4998841;28;20603;-75
2022/06/11 08:48:30;;;;;;;5.25;2.83;;;24.50;72.80;;;;;;5004820;28;20128;-75
2022/06/11 08:51:20;;;;;;;4.05;3.08;;;24.30;71.70;;;;;;4981429;28;20049;-74
2022/06/11 08:53:49;;;;;;;5.63;3.83;;;24.20;72.40;;;;;;5010495;28;20049;-75
2022/06/11 08:56:38;;;;;;;3.33;2.53;;;24.50;72.30;;;;;;4993639;28;20278;-74
2022/06/11 08:59:38;;;;;;;2.80;2.47;;;24.70;67.90;;;;;;4976865;28;20144;-73
2022/06/11 09:02:34;;;;;;;4.18;2.78;;;25.20;68.40;;;;;;5013739;28;20054;-74
2022/06/11 09:05:19;;;;;;;5.03;2.22;;;25.40;68.00;;;;;;5013954;28;20042;-75
2022/06/11 09:08:34;;;;;;;4.07;2.58;;;25.60;68.60;;;;;;4996400;28;20050;-75
2022/06/11 09:11:25;;;;;;;3.45;2.45;;;25.80;67.00;;;;;;4923633;28;20145;-75
2022/06/11 09:14:14;;;;;;;3.25;2.53;;;25.70;67.50;;;;;;4937433;28;20055;-75
2022/06/11 09:16:55;;;;;;;3.38;2.47;;;25.80;67.80;;;;;;4991920;28;20065;-76
2022/06/11 09:19:49;;;;;;;2.83;2.33;;;25.80;66.20;;;;;;5013655;28;20072;-75
2022/06/11 09:22:39;;;;;;;2.30;2.10;;;25.80;65.00;;;;;;5001231;28;20049;-74
2022/06/11 09:25:18;;;;;;;3.80;2.50;;;25.70;65.80;;;;;;5014036;28;20049;-76
2022/06/11 09:27:59;;;;;;;3.60;2.38;;;25.80;66.50;;;;;;5014615;28;20053;-76
2022/06/11 09:30:47;;;;;;;3.72;2.42;;;25.70;65.50;;;;;;4977324;28;20149;-75
2022/06/11 09:33:22;;;;;;;3.78;2.60;;;25.90;66.30;;;;;;4983498;28;20056;-76
2022/06/11 09:36:03;;;;;;;3.15;2.40;;;26.00;64.20;;;;;;5002510;28;20094;-76
2022/06/11 09:38:55;;;;;;;6.00;2.88;;;26.00;64.30;;;;;;4994485;28;20057;-76
2022/06/11 09:41:48;;;;;;;3.00;2.08;;;25.80;68.80;;;;;;4993777;28;20058;-76
2022/06/11 09:44:16;;;;;;;4.63;2.85;;;25.90;65.40;;;;;;5000010;28;20062;-75
2022/06/11 09:47:02;;;;;;;4.25;2.85;;;25.80;66.80;;;;;;5008918;28;20049;-76
2022/06/11 09:49:51;;;;;;;3.40;2.78;;;25.60;67.90;;;;;;5010716;28;20625;-75
2022/06/11 09:52:29;;;;;;;3.38;2.63;;;25.20;68.20;;;;;;5016721;28;20060;-75
2022/06/11 09:54:58;;;;;;;2.67;2.42;;;25.40;68.10;;;;;;4980322;28;20053;-76
2022/06/11 09:57:34;;;;;;;3.13;2.38;;;25.40;67.90;;;;;;5020809;28;20065;-76
2022/06/11 10:00:10;;;;;;;4.45;2.72;;;25.80;66.10;;;;;;4997360;28;20167;-76
2022/06/11 10:03:26;;;;;;;6.75;3.22;;;26.00;65.50;;;;;;4998971;28;20060;-76
2022/06/11 10:05:55;;;;;;;8.00;2.60;;;25.80;67.10;;;;;;5007408;28;20045;-76
2022/06/11 10:08:43;;;;;;;2.85;2.50;;;25.40;67.70;;;;;;5003182;28;20069;-75
2022/06/11 10:11:25;;;;;;;3.22;2.55;;;25.00;67.70;;;;;;4989541;28;20049;-75
2022/06/11 10:13:55;;;;;;;4.03;2.13;;;25.00;67.30;;;;;;4998112;28;20162;-76
2022/06/11 10:16:28;;;;;;;2.10;1.85;;;25.00;66.60;;;;;;5003158;28;22722;-75
2022/06/11 10:19:05;;;;;;;5.50;2.35;;;25.00;65.70;;;;;;4998906;28;20894;-75
2022/06/11 10:21:34;;;;;;;5.20;2.22;;;25.10;67.20;;;;;;4998842;28;21055;-74
2022/06/11 10:24:12;;;;;;;2.78;2.45;;;25.40;66.40;;;;;;5011759;28;22357;-75
2022/06/11 10:26:57;;;;;;;3.08;2.60;;;25.90;66.50;;;;;;5002409;28;20156;-75
2022/06/11 10:29:37;;;;;;;2.83;2.38;;;26.00;63.60;;;;;;4995304;28;24152;-76
2022/06/11 10:32:13;;;;;;;3.70;2.85;;;25.80;64.00;;;;;;5003826;28;20045;-76
2022/06/11 10:34:47;;;;;;;3.45;3.10;;;25.60;64.60;;;;;;4991737;28;21069;-75
2022/06/11 10:37:37;;;;;;;3.63;2.95;;;25.60;66.10;;;;;;4991211;28;20057;-75
2022/06/11 10:40:24;;;;;;;2.45;2.25;;;25.60;65.30;;;;;;4995087;28;20116;-75
2022/06/11 10:43:09;;;;;;;2.35;2.03;;;25.30;63.50;;;;;;5004171;28;20053;-75
2022/06/11 10:45:37;;;;;;;3.28;2.50;;;25.30;65.80;;;;;;5001445;28;20499;-75
2022/06/11 10:48:15;;;;;;;3.05;1.98;;;25.40;65.90;;;;;;4994103;28;20100;-75
2022/06/11 10:50:42;;;;;;;3.17;1.95;;;25.30;66.10;;;;;;5017894;28;20053;-75
2022/06/11 10:53:19;;;;;;;3.35;2.65;;;25.20;65.20;;;;;;5017260;28;20042;-75
2022/06/11 10:55:57;;;;;;;3.83;2.58;;;25.00;68.30;;;;;;5000199;28;20084;-75
2022/06/11 10:58:42;;;;;;;4.00;2.33;;;25.00;66.50;;;;;;4998368;28;20057;-75
2022/06/11 11:01:23;;;;;;;4.03;2.50;;;25.00;65.40;;;;;;5017530;28;20179;-75
2022/06/11 11:04:13;;;;;;;2.88;2.58;;;25.00;65.50;;;;;;4997443;28;20049;-75
2022/06/11 11:06:41;;;;;;;2.85;2.17;;;25.00;65.60;;;;;;4993619;28;20935;-73
2022/06/11 11:09:24;;;;;;;3.10;2.50;;;25.30;65.60;;;;;;4997189;28;20787;-75
2022/06/11 11:11:56;;;;;;;;;;;25.60;65.30;;;;;;4993902;28;21104;-74
2022/06/11 11:14:40;;;;;;;3.00;2.17;;;25.70;63.70;;;;;;4997469;28;19932;-75
2022/06/11 11:17:20;;;;;;;3.47;2.33;;;25.50;63.90;;;;;;4986827;28;20159;-75
2022/06/11 11:22:41;;;;;;;2.88;1.95;;;26.10;60.70;;;;;;5003214;28;20057;-75
2022/06/11 11:25:17;;;;;;;4.18;2.60;;;26.20;61.90;;;;;;5000516;28;20064;-74
2022/06/11 11:27:47;;;;;;;2.75;1.92;;;26.30;60.50;;;;;;4989924;28;20080;-74
2022/06/11 11:30:14;;;;;;;2.42;2.05;;;26.30;62.20;;;;;;5005400;28;20050;-75
2022/06/11 11:32:46;;;;;;;2.58;1.95;;;26.40;61.20;;;;;;5004924;28;20045;-76
2022/06/11 11:35:18;;;;;;;3.95;2.30;;;26.10;59.70;;;;;;4994178;28;20058;-74
2022/06/11 11:37:56;;;;;;;3.60;2.17;;;26.00;60.60;;;;;;4990981;28;20045;-76
2022/06/11 11:40:36;;;;;;;3.35;2.35;;;25.80;62.00;;;;;;5008515;28;20061;-75
2022/06/11 11:43:11;;;;;;;2.83;2.40;;;25.70;61.80;;;;;;4985613;28;20057;-75
2022/06/11 11:45:48;;;;;;;3.45;2.28;;;25.70;62.70;;;;;;4992707;28;20045;-74
2022/06/11 11:48:30;;;;;;;2.08;1.73;;;25.60;62.40;;;;;;4983217;28;20054;-75
2022/06/11 11:51:17;;;;;;;1.53;1.37;;;25.60;62.80;;;;;;5010896;28;20613;-74
2022/06/11 11:53:51;;;;;;;3.17;1.67;;;25.60;60.50;;;;;;4998080;28;22412;-74
2022/06/11 11:56:30;;;;;;;2.53;1.83;;;25.50;61.10;;;;;;4986203;28;20053;-74
2022/06/11 11:59:02;;;;;;;3.38;1.33;;;25.50;60.70;;;;;;5012472;28;20065;-75
2022/06/11 12:01:29;;;;;;;;;;;25.50;60.80;;;;;;4990426;28;20118;-75
2022/06/11 12:04:22;;;;;;;2.15;1.70;;;25.50;61.80;;;;;;4999592;28;19929;-74
2022/06/11 12:06:55;;;;;;;;;;;25.90;59.50;;;;;;4997277;28;20116;-76
2022/06/11 12:09:39;;;;;;;16.75;4.35;;;25.80;59.80;;;;;;4995386;28;20012;-75
2022/06/11 12:12:09;;;;;;;3.28;1.75;;;25.70;59.80;;;;;;4993060;28;22661;-74
2022/06/11 12:14:41;;;;;;;3.88;1.88;;;25.60;61.50;;;;;;4988032;28;20045;-73
2022/06/11 12:17:23;;;;;;;2.10;1.90;;;25.70;59.80;;;;;;4988667;28;20049;-74
2022/06/11 12:19:52;;;;;;;;;;;25.80;60.80;;;;;;5011825;28;20065;-75
2022/06/11 12:22:28;;;;;;;3.03;2.03;;;26.20;61.40;;;;;;4991156;28;19929;-74
2022/06/11 12:24:57;;;;;;;2.67;2.30;;;26.60;61.40;;;;;;4986288;28;20052;-73
2022/06/11 12:27:39;;;;;;;2.35;2.00;;;26.70;60.10;;;;;;4986091;28;20071;-74
2022/06/11 12:30:32;;;;;;;2.65;2.15;;;26.70;62.30;;;;;;4991412;28;20045;-74
2022/06/11 12:33:00;;;;;;;3.55;2.15;;;26.50;57.10;;;;;;4962150;28;20056;-74
2022/06/11 12:35:42;;;;;;;6.85;2.55;;;26.20;59.80;;;;;;4987957;28;20046;-74
2022/06/11 12:38:35;;;;;;;3.65;2.00;;;26.10;62.30;;;;;;5023724;28;20181;-73
2022/06/11 12:41:23;;;;;;;2.95;1.77;;;26.10;59.60;;;;;;4985207;28;20053;-75
2022/06/11 12:44:28;;;;;;;2.30;2.10;;;26.00;60.50;;;;;;4977023;28;20132;-74
2022/06/11 12:46:55;;;;;;;3.50;2.50;;;26.10;59.90;;;;;;4980503;28;20111;-74
2022/06/11 12:49:41;;;;;;;3.03;2.60;;;26.10;61.70;;;;;;4990710;28;20643;-74
2022/06/11 12:52:25;;;;;;;6.10;3.05;;;26.00;62.30;;;;;;5002667;28;20053;-75
2022/06/11 12:55:03;;;;;;;5.30;2.90;;;25.90;63.20;;;;;;5009447;28;20056;-74
2022/06/11 12:57:49;;;;;;;2.80;2.38;;;25.80;63.70;;;;;;4988815;28;20058;-74
2022/06/11 13:00:19;;;;;;;2.90;2.60;;;25.70;65.10;;;;;;4985310;28;20053;-74
2022/06/11 13:03:15;;;;;;;4.72;2.72;;;25.70;65.50;;;;;;4994031;28;20151;-75
2022/06/11 13:06:14;;;;;;;2.33;2.13;;;25.80;64.80;;;;;;4979715;28;22057;-73
2022/06/11 13:09:11;;;;;;;4.32;2.50;;;25.80;62.40;;;;;;4975785;28;20062;-76
2022/06/11 13:11:42;;;;;;;3.60;2.50;;;25.90;63.20;;;;;;4995588;28;20076;-75
2022/06/11 13:14:32;;;;;;;3.95;2.90;;;25.80;64.20;;;;;;4983535;28;20053;-74
2022/06/11 13:17:27;;;;;;;7.70;2.72;;;25.80;64.90;;;;;;4981209;28;20052;-74
2022/06/11 13:20:24;;;;;;;6.40;3.60;;;25.70;66.00;;;;;;5014453;28;20144;-77
2022/06/11 13:23:04;;;;;;;3.70;3.38;;;25.60;67.70;;;;;;5021670;28;20500;-74
2022/06/11 13:26:22;;;;;;;5.03;3.10;;;25.50;68.80;;;;;;4999500;28;20053;-74
2022/06/11 13:28:49;;;;;;;4.72;3.60;;;25.50;68.50;;;;;;4974333;28;20116;-75
2022/06/11 13:31:38;;;;;;;3.08;2.78;;;25.50;69.40;;;;;;5006711;28;20117;-74